createdAt,value
2018-08-03T00:00:54.729Z,25.42
2018-08-03T00:01:54.746Z,25.31
2018-08-03T00:02:54.746Z,25.37
2018-08-03T00:03:54.754Z,25.49
2018-08-03T00:04:54.762Z,25.42
2018-08-03T00:05:54.767Z,25.38
2018-08-03T00:06:54.773Z,25.39
2018-08-03T00:07:54.798Z,25.34
2018-08-03T00:08:54.793Z,25.34
2018-08-03T00:09:54.807Z,25.32
2018-08-03T00:10:54.808Z,25.30
2018-08-03T00:11:54.816Z,25.35
2018-08-03T00:12:54.827Z,25.30
2018-08-03T00:13:54.824Z,25.34
2018-08-03T00:14:54.835Z,25.19
2018-08-03T00:15:54.847Z,25.17
2018-08-03T00:16:54.856Z,25.19
2018-08-03T00:17:54.857Z,25.19
2018-08-03T00:18:54.865Z,25.20
2018-08-03T00:19:54.876Z,25.19
2018-08-03T00:20:54.885Z,25.12
2018-08-03T00:21:54.894Z,25.17
2018-08-03T00:22:54.895Z,25.20
2018-08-03T00:23:54.901Z,25.07
2018-08-03T00:24:54.919Z,25.17
2018-08-03T00:25:54.917Z,25.16
2018-08-03T00:26:54.935Z,25.05
2018-08-03T00:27:54.932Z,25.05
2018-08-03T00:28:54.940Z,25.01
2018-08-03T00:29:54.965Z,25.07
2018-08-03T00:30:54.960Z,25.07
2018-08-03T00:31:54.958Z,25.06
2018-08-03T00:32:54.968Z,24.98
2018-08-03T00:33:54.979Z,24.95
2018-08-03T00:34:54.993Z,25.02
2018-08-03T00:35:54.994Z,24.85
2018-08-03T00:36:55.003Z,24.91
2018-08-03T00:37:55.008Z,24.92
2018-08-03T00:38:55.037Z,24.88
2018-08-03T00:39:55.033Z,24.83
2018-08-03T00:40:55.042Z,24.83
2018-08-03T00:41:55.036Z,24.92
2018-08-03T00:42:55.053Z,24.88
2018-08-03T00:43:55.057Z,24.85
2018-08-03T00:44:55.068Z,24.80
2018-08-03T00:45:55.082Z,24.85
2018-08-03T00:46:55.070Z,24.79
2018-08-03T00:47:55.091Z,24.77
2018-08-03T00:48:56.985Z,24.83
2018-08-03T00:49:55.109Z,24.76
2018-08-03T00:50:55.101Z,24.75
2018-08-03T00:51:55.120Z,24.73
2018-08-03T00:52:55.120Z,24.68
2018-08-03T00:53:55.133Z,24.71
2018-08-03T00:54:55.143Z,24.75
2018-08-03T00:55:55.152Z,24.75
2018-08-03T00:56:55.149Z,24.61
2018-08-03T00:57:55.161Z,24.71
2018-08-03T00:58:55.168Z,24.75
2018-08-03T00:59:55.176Z,24.76
2018-08-03T01:00:55.179Z,24.60
2018-08-03T01:01:55.188Z,24.75
2018-08-03T01:02:55.198Z,24.68
2018-08-03T01:03:55.199Z,24.69
2018-08-03T01:04:55.206Z,24.69
2018-08-03T01:05:55.223Z,24.71
2018-08-03T01:06:55.232Z,24.67
2018-08-03T01:07:55.234Z,24.59
2018-08-03T01:08:55.237Z,24.56
2018-08-03T01:09:55.244Z,24.64
2018-08-03T01:10:55.252Z,24.54
2018-08-03T01:11:55.259Z,24.56
2018-08-03T01:12:55.318Z,24.57
2018-08-03T01:13:55.301Z,24.64
2018-08-03T01:14:55.285Z,24.60
2018-08-03T01:15:55.289Z,24.53
2018-08-03T01:16:55.294Z,24.59
2018-08-03T01:17:55.304Z,24.59
2018-08-03T01:18:55.301Z,24.54
2018-08-03T01:19:55.322Z,24.50
2018-08-03T01:20:55.317Z,24.52
2018-08-03T01:21:55.336Z,24.41
2018-08-03T01:22:55.359Z,24.44
2018-08-03T01:23:55.344Z,24.41
2018-08-03T01:24:55.354Z,24.41
2018-08-03T01:25:56.991Z,24.39
2018-08-03T01:26:55.360Z,24.41
2018-08-03T01:27:55.405Z,24.34
2018-08-03T01:28:55.404Z,24.39
2018-08-03T01:29:55.389Z,24.42
2018-08-03T01:30:55.391Z,24.39
2018-08-03T01:31:55.402Z,24.39
2018-08-03T01:32:55.407Z,24.41
2018-08-03T01:33:55.427Z,24.44
2018-08-03T01:34:55.417Z,24.32
2018-08-03T01:35:55.430Z,24.32
2018-08-03T01:36:55.438Z,24.34
2018-08-03T01:37:55.490Z,24.29
2018-08-03T01:38:55.451Z,24.29
2018-08-03T01:39:55.461Z,24.20
2018-08-03T01:40:55.469Z,24.23
2018-08-03T01:41:55.471Z,24.20
2018-08-03T01:42:58.000Z,24.17
2018-08-03T01:43:55.483Z,24.12
2018-08-03T01:44:55.499Z,24.20
2018-08-03T01:45:55.498Z,24.13
2018-08-03T01:46:55.515Z,24.05
2018-08-03T01:47:55.512Z,24.08
2018-08-03T01:48:55.524Z,24.07
2018-08-03T01:49:55.523Z,24.13
2018-08-03T01:50:55.535Z,24.08
2018-08-03T01:51:55.541Z,24.01
2018-08-03T01:52:55.547Z,24.01
2018-08-03T01:53:55.559Z,24.07
2018-08-03T01:54:55.558Z,24.07
2018-08-03T01:55:55.572Z,24.01
2018-08-03T01:56:55.574Z,24.01
2018-08-03T01:57:57.530Z,23.90
2018-08-03T01:58:55.587Z,23.90
2018-08-03T01:59:55.598Z,23.89
2018-08-03T02:00:55.599Z,23.97
2018-08-03T02:01:55.621Z,24.01
2018-08-03T02:02:55.612Z,23.90
2018-08-03T02:03:55.629Z,23.92
2018-08-03T02:04:55.626Z,23.94
2018-08-03T02:05:55.643Z,23.79
2018-08-03T02:06:55.654Z,23.86
2018-08-03T02:07:55.652Z,23.89
2018-08-03T02:08:55.664Z,23.89
2018-08-03T02:09:55.672Z,23.92
2018-08-03T02:10:57.612Z,23.90
2018-08-03T02:11:55.684Z,23.85
2018-08-03T02:12:55.689Z,23.77
2018-08-03T02:13:55.694Z,23.77
2018-08-03T02:14:55.702Z,23.86
2018-08-03T02:15:55.758Z,23.77
2018-08-03T02:16:55.714Z,23.89
2018-08-03T02:17:55.731Z,23.86
2018-08-03T02:18:56.521Z,23.87
2018-08-03T02:19:55.735Z,23.79
2018-08-03T02:20:55.750Z,23.80
2018-08-03T02:21:55.746Z,23.76
2018-08-03T02:22:55.755Z,23.85
2018-08-03T02:23:55.767Z,23.86
2018-08-03T02:24:55.773Z,23.80
2018-08-03T02:25:55.772Z,23.83
2018-08-03T02:26:55.781Z,23.72
2018-08-03T02:27:55.789Z,23.75
2018-08-03T02:28:55.799Z,23.79
2018-08-03T02:29:55.799Z,23.76
2018-08-03T02:30:55.816Z,23.75
2018-08-03T02:31:55.821Z,23.80
2018-08-03T02:32:55.822Z,23.80
2018-08-03T02:33:55.834Z,23.70
2018-08-03T02:34:55.839Z,23.70
2018-08-03T02:35:55.858Z,23.67
2018-08-03T02:36:55.860Z,23.68
2018-08-03T02:37:55.855Z,23.61
2018-08-03T02:38:56.522Z,23.61
2018-08-03T02:39:55.883Z,23.61
2018-08-03T02:40:55.883Z,23.58
2018-08-03T02:41:55.879Z,23.52
2018-08-03T02:42:55.886Z,23.55
2018-08-03T02:43:55.901Z,23.53
2018-08-03T02:44:55.908Z,23.55
2018-08-03T02:45:55.903Z,23.60
2018-08-03T02:46:55.910Z,23.49
2018-08-03T02:47:55.927Z,23.55
2018-08-03T02:48:55.933Z,23.58
2018-08-03T02:49:55.935Z,23.47
2018-08-03T02:50:55.943Z,23.49
2018-08-03T02:51:55.953Z,23.53
2018-08-03T02:52:55.954Z,23.53
2018-08-03T02:53:55.962Z,23.52
2018-08-03T02:54:55.972Z,23.50
2018-08-03T02:55:55.977Z,23.49
2018-08-03T02:56:55.982Z,23.46
2018-08-03T02:57:55.995Z,23.43
2018-08-03T02:58:55.999Z,23.42
2018-08-03T02:59:56.003Z,23.45
2018-08-03T03:00:56.002Z,23.43
2018-08-03T03:01:56.022Z,23.35
2018-08-03T03:02:56.030Z,23.38
2018-08-03T03:03:56.023Z,23.35
2018-08-03T03:04:56.033Z,23.27
2018-08-03T03:05:56.044Z,23.27
2018-08-03T03:06:56.047Z,23.34
2018-08-03T03:07:56.054Z,23.20
2018-08-03T03:08:56.065Z,23.20
2018-08-03T03:09:56.068Z,23.24
2018-08-03T03:10:56.071Z,23.29
2018-08-03T03:11:56.076Z,23.29
2018-08-03T03:12:56.090Z,23.26
2018-08-03T03:13:56.095Z,23.26
2018-08-03T03:14:56.103Z,23.27
2018-08-03T03:15:56.108Z,23.22
2018-08-03T03:16:56.113Z,23.19
2018-08-03T03:17:56.120Z,23.23
2018-08-03T03:18:56.127Z,23.20
2018-08-03T03:19:56.136Z,23.23
2018-08-03T03:20:56.141Z,23.22
2018-08-03T03:21:56.167Z,23.23
2018-08-03T03:22:56.152Z,23.20
2018-08-03T03:23:56.162Z,23.27
2018-08-03T03:24:56.161Z,23.20
2018-08-03T03:25:56.172Z,23.23
2018-08-03T03:26:56.176Z,23.22
2018-08-03T03:27:56.182Z,23.15
2018-08-03T03:28:56.197Z,23.14
2018-08-03T03:29:56.198Z,23.17
2018-08-03T03:30:56.200Z,23.19
2018-08-03T03:31:56.214Z,23.14
2018-08-03T03:32:56.211Z,23.12
2018-08-03T03:33:56.228Z,23.14
2018-08-03T03:34:56.229Z,23.15
2018-08-03T03:35:56.237Z,23.15
2018-08-03T03:36:56.298Z,23.14
2018-08-03T03:37:56.248Z,23.09
2018-08-03T03:38:56.256Z,23.09
2018-08-03T03:39:56.259Z,23.07
2018-08-03T03:40:56.270Z,23.14
2018-08-03T03:41:56.275Z,23.09
2018-08-03T03:42:56.281Z,23.11
2018-08-03T03:43:57.057Z,23.05
2018-08-03T03:44:56.291Z,23.14
2018-08-03T03:45:56.302Z,23.11
2018-08-03T03:46:56.309Z,23.04
2018-08-03T03:47:56.312Z,23.05
2018-08-03T03:48:56.315Z,23.08
2018-08-03T03:49:56.331Z,23.07
2018-08-03T03:50:56.368Z,23.12
2018-08-03T03:51:56.339Z,23.11
2018-08-03T03:52:56.336Z,23.09
2018-08-03T03:53:56.357Z,23.09
2018-08-03T03:54:57.052Z,23.09
2018-08-03T03:55:56.362Z,23.07
2018-08-03T03:56:56.368Z,23.04
2018-08-03T03:57:56.373Z,23.02
2018-08-03T03:58:56.377Z,23.01
2018-08-03T03:59:56.387Z,23.01
2018-08-03T04:00:56.389Z,23.07
2018-08-03T04:01:56.400Z,23.01
2018-08-03T04:02:56.398Z,23.01
2018-08-03T04:03:56.478Z,22.99
2018-08-03T04:04:56.412Z,22.99
2018-08-03T04:05:56.428Z,23.01
2018-08-03T04:06:56.434Z,22.97
2018-08-03T04:07:56.440Z,23.04
2018-08-03T04:08:56.440Z,23.02
2018-08-03T04:09:56.450Z,23.09
2018-08-03T04:10:56.463Z,23.12
2018-08-03T04:11:56.459Z,23.09
2018-08-03T04:12:56.465Z,23.07
2018-08-03T04:13:56.475Z,23.05
2018-08-03T04:14:56.475Z,23.05
2018-08-03T04:15:56.482Z,23.08
2018-08-03T04:16:56.500Z,23.11
2018-08-03T04:17:56.503Z,23.09
2018-08-03T04:18:56.507Z,23.09
2018-08-03T04:19:56.516Z,23.14
2018-08-03T04:20:56.520Z,23.24
2018-08-03T04:21:56.533Z,23.20
2018-08-03T04:22:56.529Z,23.22
2018-08-03T04:23:56.541Z,23.29
2018-08-03T04:24:56.544Z,23.20
2018-08-03T04:25:56.548Z,23.26
2018-08-03T04:26:56.555Z,23.23
2018-08-03T04:27:56.565Z,23.27
2018-08-03T04:28:56.570Z,23.34
2018-08-03T04:29:56.582Z,23.31
2018-08-03T04:30:56.584Z,23.38
2018-08-03T04:31:56.588Z,23.24
2018-08-03T04:32:56.612Z,23.38
2018-08-03T04:33:56.602Z,23.29
2018-08-03T04:34:56.608Z,23.31
2018-08-03T04:35:56.616Z,23.34
2018-08-03T04:36:56.619Z,23.27
2018-08-03T04:37:56.624Z,23.34
2018-08-03T04:38:56.680Z,23.35
2018-08-03T04:39:56.703Z,23.15
2018-08-03T04:40:56.650Z,23.31
2018-08-03T04:41:56.649Z,23.35
2018-08-03T04:42:56.696Z,23.35
2018-08-03T04:43:56.684Z,23.31
2018-08-03T04:44:56.766Z,23.34
2018-08-03T04:45:56.769Z,23.35
2018-08-03T04:46:56.800Z,23.32
2018-08-03T04:47:56.823Z,23.39
2018-08-03T04:48:56.867Z,23.43
2018-08-03T04:49:56.714Z,23.45
2018-08-03T04:50:56.786Z,23.53
2018-08-03T04:51:56.748Z,23.50
2018-08-03T04:52:56.847Z,23.46
2018-08-03T04:53:56.735Z,23.47
2018-08-03T04:54:56.755Z,23.50
2018-08-03T04:55:56.752Z,23.53
2018-08-03T04:56:56.824Z,23.50
2018-08-03T04:57:56.831Z,23.55
2018-08-03T04:58:56.775Z,23.49
2018-08-03T04:59:56.775Z,23.57
2018-08-03T05:00:57.672Z,23.61
2018-08-03T05:01:56.799Z,23.67
2018-08-03T05:02:56.880Z,23.75
2018-08-03T05:03:56.894Z,23.75
2018-08-03T05:04:56.847Z,23.70
2018-08-03T05:05:56.821Z,23.82
2018-08-03T05:06:56.899Z,23.80
2018-08-03T05:07:56.904Z,23.85
2018-08-03T05:08:56.978Z,23.87
2018-08-03T05:09:57.007Z,23.90
2018-08-03T05:10:56.841Z,23.90
2018-08-03T05:11:56.982Z,23.98
2018-08-03T05:12:57.764Z,23.97
2018-08-03T05:13:56.917Z,24.02
2018-08-03T05:14:57.029Z,24.04
2018-08-03T05:15:56.976Z,23.98
2018-08-03T05:16:56.957Z,24.07
2018-08-03T05:17:56.951Z,24.14
2018-08-03T05:18:56.921Z,23.98
2018-08-03T05:19:56.981Z,24.07
2018-08-03T05:20:57.578Z,24.20
2018-08-03T05:21:57.011Z,24.27
2018-08-03T05:22:56.934Z,24.22
2018-08-03T05:23:56.930Z,24.26
2018-08-03T05:24:57.060Z,24.26
2018-08-03T05:25:56.944Z,24.26
2018-08-03T05:26:57.086Z,24.26
2018-08-03T05:27:57.046Z,24.19
2018-08-03T05:28:57.125Z,24.19
2018-08-03T05:29:57.054Z,24.23
2018-08-03T05:30:57.105Z,24.26
2018-08-03T05:31:57.058Z,24.35
2018-08-03T05:32:57.076Z,24.37
2018-08-03T05:33:57.084Z,24.31
2018-08-03T05:34:57.043Z,24.37
2018-08-03T05:35:57.172Z,24.44
2018-08-03T05:36:57.059Z,24.49
2018-08-03T05:37:57.042Z,24.52
2018-08-03T05:38:57.103Z,25.02
2018-08-03T05:39:57.065Z,25.93
2018-08-03T05:40:57.151Z,26.96
2018-08-03T05:41:57.099Z,27.71
2018-08-03T05:42:57.069Z,28.62
2018-08-03T05:43:57.100Z,29.29
2018-08-03T05:44:57.110Z,29.82
2018-08-03T05:45:57.223Z,30.34
2018-08-03T05:46:58.059Z,30.72
2018-08-03T05:47:57.228Z,30.90
2018-08-03T05:48:57.198Z,31.20
2018-08-03T05:49:57.176Z,31.50
2018-08-03T05:50:57.179Z,32.06
2018-08-03T05:51:57.154Z,32.42
2018-08-03T05:52:57.192Z,32.69
2018-08-03T05:53:57.176Z,32.91
2018-08-03T05:54:57.211Z,32.96
2018-08-03T05:55:57.197Z,33.13
2018-08-03T05:56:57.223Z,33.30
2018-08-03T05:57:57.262Z,33.55
2018-08-03T05:58:57.349Z,33.74
2018-08-03T05:59:57.254Z,33.74
2018-08-03T06:00:57.250Z,33.79
2018-08-03T06:01:57.291Z,34.00
2018-08-03T06:02:57.270Z,34.19
2018-08-03T06:03:57.286Z,34.24
2018-08-03T06:04:57.301Z,34.45
2018-08-03T06:05:57.309Z,34.69
2018-08-03T06:06:57.322Z,34.69
2018-08-03T06:07:57.329Z,34.60
2018-08-03T06:08:57.344Z,34.70
2018-08-03T06:09:57.354Z,34.72
2018-08-03T06:10:57.389Z,34.83
2018-08-03T06:11:57.411Z,34.77
2018-08-03T06:12:57.445Z,35.10
2018-08-03T06:13:57.468Z,35.30
2018-08-03T06:14:57.457Z,35.36
2018-08-03T06:15:57.462Z,35.33
2018-08-03T06:16:57.478Z,35.40
2018-08-03T06:17:57.593Z,35.58
2018-08-03T06:18:57.593Z,35.74
2018-08-03T06:19:57.507Z,35.89
2018-08-03T06:20:57.518Z,35.99
2018-08-03T06:21:57.546Z,36.33
2018-08-03T06:22:57.545Z,36.64
2018-08-03T06:23:57.577Z,36.83
2018-08-03T06:24:57.600Z,36.82
2018-08-03T06:25:57.626Z,36.76
2018-08-03T06:26:57.670Z,36.87
2018-08-03T06:27:57.725Z,37.04
2018-08-03T06:28:57.667Z,37.16
2018-08-03T06:29:57.657Z,37.31
2018-08-03T06:30:57.685Z,37.47
2018-08-03T06:31:57.816Z,37.43
2018-08-03T06:32:57.828Z,37.35
2018-08-03T06:33:58.613Z,37.48
2018-08-03T06:34:57.732Z,37.46
2018-08-03T06:35:57.847Z,37.33
2018-08-03T06:36:58.051Z,37.48
2018-08-03T06:37:57.782Z,37.13
2018-08-03T06:38:57.929Z,37.64
2018-08-03T06:39:58.002Z,37.83
2018-08-03T06:40:57.942Z,38.20
2018-08-03T06:41:57.959Z,38.24
2018-08-03T06:42:57.986Z,38.51
2018-08-03T06:43:57.961Z,38.71
2018-08-03T06:44:57.942Z,38.87
2018-08-03T06:45:57.925Z,39.02
2018-08-03T06:46:58.056Z,38.82
2018-08-03T06:47:57.974Z,38.67
2018-08-03T06:48:58.063Z,38.42
2018-08-03T06:49:58.083Z,38.33
2018-08-03T06:51:01.009Z,38.38
2018-08-03T06:51:58.588Z,38.46
2018-08-03T06:52:58.634Z,38.46
2018-08-03T06:53:58.161Z,38.80
2018-08-03T06:54:58.119Z,39.02
2018-08-03T06:55:58.117Z,39.02
2018-08-03T06:56:58.233Z,39.22
2018-08-03T06:57:58.299Z,39.21
2018-08-03T06:58:58.702Z,39.30
2018-08-03T06:59:58.265Z,39.49
2018-08-03T07:00:58.300Z,39.65
2018-08-03T07:01:58.987Z,39.96
2018-08-03T07:02:58.387Z,39.42
2018-08-03T07:03:58.402Z,39.54
2018-08-03T07:04:58.413Z,39.92
2018-08-03T07:05:58.286Z,40.07
2018-08-03T07:06:58.423Z,40.12
2018-08-03T07:07:58.838Z,40.14
2018-08-03T07:08:58.343Z,40.23
2018-08-03T07:09:58.377Z,40.30
2018-08-03T07:10:58.376Z,40.19
2018-08-03T07:11:58.410Z,40.40
2018-08-03T07:12:58.423Z,40.34
2018-08-03T07:13:58.496Z,40.71
2018-08-03T07:14:58.529Z,40.64
2018-08-03T07:15:58.478Z,40.62
2018-08-03T07:16:58.504Z,40.61
2018-08-03T07:17:58.531Z,40.74
2018-08-03T07:18:58.538Z,40.80
2018-08-03T07:19:58.582Z,40.81
2018-08-03T07:20:58.596Z,41.05
2018-08-03T07:21:58.603Z,41.05
2018-08-03T07:22:58.625Z,41.06
2018-08-03T07:23:58.683Z,41.20
2018-08-03T07:24:58.657Z,41.41
2018-08-03T07:25:58.748Z,41.40
2018-08-03T07:26:58.705Z,41.54
2018-08-03T07:27:58.722Z,41.66
2018-08-03T07:28:59.635Z,41.78
2018-08-03T07:29:58.768Z,41.91
2018-08-03T07:30:58.792Z,41.97
2018-08-03T07:31:58.806Z,41.98
2018-08-03T07:32:58.881Z,42.00
2018-08-03T07:33:58.850Z,41.94
2018-08-03T07:34:58.873Z,41.94
2018-08-03T07:35:58.882Z,42.17
2018-08-03T07:36:58.947Z,42.37
2018-08-03T07:37:58.938Z,42.46
2018-08-03T07:38:58.958Z,42.44
2018-08-03T07:39:58.995Z,42.38
2018-08-03T07:40:58.997Z,42.60
2018-08-03T07:41:59.018Z,42.58
2018-08-03T07:42:59.143Z,42.92
2018-08-03T07:43:59.068Z,42.90
2018-08-03T07:44:59.116Z,42.23
2018-08-03T07:45:59.108Z,41.91
2018-08-03T07:46:59.122Z,41.85
2018-08-03T07:47:59.150Z,41.97
2018-08-03T07:48:59.172Z,42.10
2018-08-03T07:49:59.203Z,42.17
2018-08-03T07:50:59.216Z,42.41
2018-08-03T07:51:59.244Z,42.68
2018-08-03T07:52:59.255Z,42.63
2018-08-03T07:53:59.284Z,42.70
2018-08-03T07:54:59.301Z,42.39
2018-08-03T07:55:59.321Z,42.42
2018-08-03T07:56:59.347Z,42.84
2018-08-03T07:58:00.141Z,42.94
2018-08-03T07:58:59.401Z,43.58
2018-08-03T07:59:59.424Z,43.80
2018-08-03T08:00:59.440Z,43.67
2018-08-03T08:01:59.471Z,43.56
2018-08-03T08:02:59.477Z,43.49
2018-08-03T08:03:59.515Z,43.60
2018-08-03T08:04:59.532Z,43.89
2018-08-03T08:05:59.605Z,43.70
2018-08-03T08:06:59.587Z,43.56
2018-08-03T08:07:59.653Z,42.99
2018-08-03T08:08:59.618Z,42.73
2018-08-03T08:09:59.661Z,42.75
2018-08-03T08:10:59.680Z,42.84
2018-08-03T08:11:59.682Z,42.78
2018-08-03T08:12:59.717Z,42.66
2018-08-03T08:13:59.736Z,42.57
2018-08-03T08:14:59.759Z,42.41
2018-08-03T08:15:59.804Z,42.42
2018-08-03T08:16:59.862Z,42.75
2018-08-03T08:17:59.830Z,42.85
2018-08-03T08:18:59.854Z,43.38
2018-08-03T08:19:59.881Z,43.64
2018-08-03T08:20:59.898Z,43.75
2018-08-03T08:21:59.927Z,43.98
2018-08-03T08:22:59.940Z,43.83
2018-08-03T08:23:59.979Z,43.89
2018-08-03T08:24:59.989Z,43.92
2018-08-03T08:26:00.057Z,43.57
2018-08-03T08:27:00.042Z,43.42
2018-08-03T08:28:00.064Z,43.26
2018-08-03T08:29:00.091Z,43.53
2018-08-03T08:30:00.122Z,43.65
2018-08-03T08:31:00.146Z,43.85
2018-08-03T08:32:00.160Z,43.89
2018-08-03T08:33:00.189Z,43.79
2018-08-03T08:34:00.208Z,43.41
2018-08-03T08:35:00.260Z,43.39
2018-08-03T08:36:00.259Z,43.53
2018-08-03T08:37:00.300Z,43.79
2018-08-03T08:38:00.303Z,43.67
2018-08-03T08:39:00.327Z,43.26
2018-08-03T08:40:00.353Z,43.06
2018-08-03T08:41:00.388Z,42.99
2018-08-03T08:42:00.398Z,43.03
2018-08-03T08:43:00.436Z,43.27
2018-08-03T08:44:00.485Z,42.91
2018-08-03T08:45:00.477Z,43.07
2018-08-03T08:46:00.495Z,42.95
2018-08-03T08:47:00.526Z,42.81
2018-08-03T08:48:00.614Z,42.84
2018-08-03T08:49:00.683Z,42.83
2018-08-03T08:50:00.633Z,43.27
2018-08-03T08:51:00.663Z,43.61
2018-08-03T08:52:00.670Z,43.76
2018-08-03T08:53:01.672Z,43.70
2018-08-03T08:54:00.707Z,43.73
2018-08-03T08:55:00.735Z,43.64
2018-08-03T08:56:00.839Z,43.87
2018-08-03T08:57:00.848Z,43.39
2018-08-03T08:58:00.886Z,43.41
2018-08-03T08:59:00.834Z,43.09
2018-08-03T09:00:00.839Z,42.87
2018-08-03T09:01:00.951Z,43.22
2018-08-03T09:02:00.913Z,43.39
2018-08-03T09:03:00.964Z,43.51
2018-08-03T09:04:00.968Z,43.67
2018-08-03T09:05:00.974Z,43.70
2018-08-03T09:06:00.992Z,43.78
2018-08-03T09:07:01.010Z,43.41
2018-08-03T09:08:01.042Z,43.60
2018-08-03T09:09:01.065Z,43.63
2018-08-03T09:10:01.096Z,43.42
2018-08-03T09:11:01.113Z,43.39
2018-08-03T09:12:01.146Z,43.56
2018-08-03T09:13:01.220Z,43.37
2018-08-03T09:14:01.189Z,43.09
2018-08-03T09:15:01.221Z,43.00
2018-08-03T09:16:01.236Z,42.37
2018-08-03T09:17:01.269Z,42.39
2018-08-03T09:18:01.285Z,42.54
2018-08-03T09:19:01.315Z,42.50
2018-08-03T09:20:01.343Z,42.17
2018-08-03T09:21:01.370Z,42.37
2018-08-03T09:22:01.457Z,42.34
2018-08-03T09:23:01.417Z,42.50
2018-08-03T09:24:01.437Z,42.51
2018-08-03T09:25:01.468Z,42.88
2018-08-03T09:26:01.500Z,42.72
2018-08-03T09:27:01.521Z,42.60
2018-08-03T09:28:01.536Z,42.62
2018-08-03T09:29:01.558Z,42.66
2018-08-03T09:30:01.596Z,42.69
2018-08-03T09:31:01.700Z,42.32
2018-08-03T09:32:01.643Z,42.20
2018-08-03T09:33:01.663Z,42.50
2018-08-03T09:34:01.694Z,42.76
2018-08-03T09:35:01.714Z,42.69
2018-08-03T09:36:01.740Z,42.46
2018-08-03T09:37:01.764Z,42.47
2018-08-03T09:38:01.790Z,42.08
2018-08-03T09:39:01.818Z,42.13
2018-08-03T09:40:01.842Z,42.01
2018-08-03T09:41:01.863Z,42.28
2018-08-03T09:42:01.917Z,42.75
2018-08-03T09:43:01.969Z,42.97
2018-08-03T09:44:01.945Z,42.99
2018-08-03T09:45:01.981Z,42.99
2018-08-03T09:46:01.994Z,42.92
2018-08-03T09:47:02.020Z,43.00
2018-08-03T09:48:02.037Z,42.70
2018-08-03T09:49:02.086Z,42.81
2018-08-03T09:50:02.093Z,42.57
2018-08-03T09:51:02.118Z,42.50
2018-08-03T09:52:02.142Z,42.17
2018-08-03T09:53:02.166Z,42.23
2018-08-03T09:54:02.196Z,42.15
2018-08-03T09:55:02.240Z,42.22
2018-08-03T09:56:02.252Z,42.31
2018-08-03T09:57:02.275Z,42.27
2018-08-03T09:58:02.300Z,42.23
2018-08-03T09:59:02.314Z,42.46
2018-08-03T10:00:02.352Z,42.58
2018-08-03T10:01:02.378Z,42.88
2018-08-03T10:02:02.401Z,42.85
2018-08-03T10:03:02.417Z,42.95
2018-08-03T10:04:02.452Z,42.90
2018-08-03T10:05:02.471Z,42.95
2018-08-03T10:06:02.511Z,43.03
2018-08-03T10:07:02.521Z,42.97
2018-08-03T10:08:02.556Z,42.79
2018-08-03T10:09:02.572Z,42.83
2018-08-03T10:10:02.598Z,42.99
2018-08-03T10:11:02.626Z,43.07
2018-08-03T10:12:02.662Z,43.13
2018-08-03T10:13:02.679Z,43.18
2018-08-03T10:14:02.700Z,43.26
2018-08-03T10:15:02.733Z,43.16
2018-08-03T10:16:02.747Z,43.22
2018-08-03T10:17:02.781Z,43.07
2018-08-03T10:18:02.798Z,43.10
2018-08-03T10:19:02.827Z,43.29
2018-08-03T10:20:02.853Z,43.32
2018-08-03T10:21:02.883Z,43.09
2018-08-03T10:22:02.903Z,42.91
2018-08-03T10:23:02.948Z,42.83
2018-08-03T10:24:02.951Z,42.69
2018-08-03T10:25:02.983Z,42.39
2018-08-03T10:26:03.005Z,41.93
2018-08-03T10:27:03.041Z,41.65
2018-08-03T10:28:03.073Z,41.49
2018-08-03T10:29:03.086Z,41.34
2018-08-03T10:30:03.114Z,41.18
2018-08-03T10:31:03.126Z,41.39
2018-08-03T10:32:03.159Z,41.40
2018-08-03T10:33:03.181Z,41.52
2018-08-03T10:34:03.212Z,41.78
2018-08-03T10:35:03.251Z,42.00
2018-08-03T10:36:03.261Z,42.32
2018-08-03T10:37:03.281Z,42.63
2018-08-03T10:38:03.309Z,42.34
2018-08-03T10:39:03.333Z,42.31
2018-08-03T10:40:03.359Z,41.91
2018-08-03T10:41:03.380Z,41.25
2018-08-03T10:42:03.407Z,41.05
2018-08-03T10:43:03.448Z,40.93
2018-08-03T10:44:03.467Z,40.96
2018-08-03T10:45:03.607Z,41.05
2018-08-03T10:46:03.510Z,41.15
2018-08-03T10:47:03.542Z,41.44
2018-08-03T10:48:03.547Z,41.50
2018-08-03T10:49:03.582Z,41.66
2018-08-03T10:50:03.598Z,41.83
2018-08-03T10:51:03.633Z,41.90
2018-08-03T10:52:03.657Z,41.86
2018-08-03T10:53:03.682Z,41.65
2018-08-03T10:54:03.707Z,41.39
2018-08-03T10:55:03.729Z,41.18
2018-08-03T10:56:03.785Z,41.15
2018-08-03T10:57:03.770Z,40.98
2018-08-03T10:58:03.797Z,40.98
2018-08-03T10:59:03.823Z,41.09
2018-08-03T11:00:03.852Z,40.81
2018-08-03T11:01:03.877Z,40.14
2018-08-03T11:02:03.890Z,40.05
2018-08-03T11:03:03.923Z,40.08
2018-08-03T11:04:03.943Z,39.96
2018-08-03T11:05:03.970Z,39.55
2018-08-03T11:06:03.984Z,39.54
2018-08-03T11:07:04.010Z,39.77
2018-08-03T11:08:04.040Z,40.12
2018-08-03T11:09:04.068Z,40.32
2018-08-03T11:10:04.111Z,40.49
2018-08-03T11:11:04.114Z,40.50
2018-08-03T11:12:04.129Z,40.72
2018-08-03T11:13:04.154Z,40.71
2018-08-03T11:14:04.181Z,40.79
2018-08-03T11:15:04.200Z,40.27
2018-08-03T11:16:04.251Z,40.04
2018-08-03T11:17:04.263Z,40.07
2018-08-03T11:18:04.265Z,40.15
2018-08-03T11:19:04.305Z,39.77
2018-08-03T11:20:04.310Z,39.35
2018-08-03T11:21:04.327Z,39.25
2018-08-03T11:22:04.401Z,38.98
2018-08-03T11:23:04.402Z,38.85
2018-08-03T11:24:04.425Z,38.66
2018-08-03T11:25:04.427Z,38.57
2018-08-03T11:26:04.483Z,38.67
2018-08-03T11:27:04.465Z,38.68
2018-08-03T11:28:04.487Z,38.63
2018-08-03T11:29:04.545Z,38.68
2018-08-03T11:30:04.592Z,38.75
2018-08-03T11:31:04.562Z,38.66
2018-08-03T11:32:04.572Z,38.68
2018-08-03T11:33:04.603Z,38.53
2018-08-03T11:34:04.610Z,38.66
2018-08-03T11:35:04.670Z,38.48
2018-08-03T11:36:04.651Z,38.34
2018-08-03T11:37:04.707Z,38.15
2018-08-03T11:38:04.694Z,38.04
2018-08-03T11:39:04.718Z,37.98
2018-08-03T11:40:04.740Z,38.22
2018-08-03T11:41:04.749Z,38.18
2018-08-03T11:42:04.767Z,38.11
2018-08-03T11:43:04.785Z,38.15
2018-08-03T11:44:04.807Z,38.45
2018-08-03T11:45:04.831Z,38.30
2018-08-03T11:46:04.862Z,38.07
2018-08-03T11:47:04.872Z,37.92
2018-08-03T11:48:04.884Z,37.92
2018-08-03T11:49:04.902Z,38.05
2018-08-03T11:50:04.930Z,38.07
2018-08-03T11:51:04.943Z,38.24
2018-08-03T11:52:04.955Z,38.18
2018-08-03T11:53:05.019Z,38.01
2018-08-03T11:54:05.047Z,37.83
2018-08-03T11:55:05.032Z,37.46
2018-08-03T11:56:05.039Z,37.39
2018-08-03T11:57:05.063Z,37.36
2018-08-03T11:58:05.070Z,37.38
2018-08-03T11:59:05.097Z,37.48
2018-08-03T12:00:05.108Z,37.59
2018-08-03T12:01:05.125Z,37.70
2018-08-03T12:02:05.155Z,37.80
2018-08-03T12:03:05.185Z,37.80
2018-08-03T12:04:05.207Z,37.80
2018-08-03T12:05:05.208Z,37.77
2018-08-03T12:06:05.240Z,37.78
2018-08-03T12:07:05.255Z,37.83
2018-08-03T12:08:05.263Z,37.81
2018-08-03T12:09:05.274Z,37.74
2018-08-03T12:10:05.312Z,37.66
2018-08-03T12:11:05.359Z,37.67
2018-08-03T12:12:05.327Z,37.55
2018-08-03T12:13:05.351Z,37.54
2018-08-03T12:14:05.363Z,37.54
2018-08-03T12:15:05.385Z,37.59
2018-08-03T12:16:05.395Z,37.43
2018-08-03T12:17:05.422Z,37.26
2018-08-03T12:18:05.432Z,37.17
2018-08-03T12:19:05.447Z,37.21
2018-08-03T12:20:05.482Z,37.16
2018-08-03T12:21:05.489Z,37.14
2018-08-03T12:22:05.504Z,37.14
2018-08-03T12:23:05.526Z,36.99
2018-08-03T12:24:05.547Z,37.09
2018-08-03T12:25:05.555Z,37.17
2018-08-03T12:26:05.573Z,37.28
2018-08-03T12:27:05.592Z,37.26
2018-08-03T12:28:05.610Z,37.16
2018-08-03T12:29:05.621Z,37.14
2018-08-03T12:30:05.641Z,37.23
2018-08-03T12:31:05.660Z,37.13
2018-08-03T12:32:05.672Z,37.14
2018-08-03T12:33:05.699Z,37.10
2018-08-03T12:34:05.710Z,37.14
2018-08-03T12:35:05.731Z,37.04
2018-08-03T12:36:05.746Z,37.19
2018-08-03T12:37:05.769Z,37.01
2018-08-03T12:38:05.772Z,37.12
2018-08-03T12:39:05.788Z,37.09
2018-08-03T12:40:05.811Z,37.07
2018-08-03T12:41:05.818Z,37.12
2018-08-03T12:42:05.848Z,36.92
2018-08-03T12:43:05.852Z,36.72
2018-08-03T12:44:05.873Z,36.63
2018-08-03T12:45:05.891Z,36.63
2018-08-03T12:46:05.967Z,36.65
2018-08-03T12:47:05.919Z,36.52
2018-08-03T12:48:05.927Z,36.49
2018-08-03T12:49:05.954Z,36.46
2018-08-03T12:50:05.972Z,36.35
2018-08-03T12:51:05.986Z,36.27
2018-08-03T12:52:05.994Z,36.26
2018-08-03T12:53:06.015Z,36.29